sensor_id;sensor_type;location;lat;lon;timestamp;pressure;altitude;pressure_sealevel;temperature;humidity
46366;BME280;72328;49.570;8.722;2023-11-18T00:01:12;100578.19;;;11.56;61.34
46366;BME280;72328;49.570;8.722;2023-11-18T00:05:13;100576.94;;;11.63;61.57
46366;BME280;72328;49.570;8.722;2023-11-18T00:09:17;100574.19;;;11.66;61.27
46366;BME280;72328;49.570;8.722;2023-11-18T00:13:18;100573.66;;;11.75;61.38
46366;BME280;72328;49.570;8.722;2023-11-18T00:17:18;100573.31;;;11.81;61.07
46366;BME280;72328;49.570;8.722;2023-11-18T00:21:21;100578.25;;;11.84;61.02
46366;BME280;72328;49.570;8.722;2023-11-18T00:25:21;100563.53;;;11.86;61.03
46366;BME280;72328;49.570;8.722;2023-11-18T00:29:22;100570.19;;;11.90;61.22
46366;BME280;72328;49.570;8.722;2023-11-18T00:33:23;100566.69;;;11.91;61.28
46366;BME280;72328;49.570;8.722;2023-11-18T00:37:24;100563.19;;;11.92;60.76
46366;BME280;72328;49.570;8.722;2023-11-18T00:41:24;100557.00;;;11.95;60.69
46366;BME280;72328;49.570;8.722;2023-11-18T00:45:27;100566.31;;;11.97;60.76
46366;BME280;72328;49.570;8.722;2023-11-18T00:49:29;100567.03;;;11.99;60.86
46366;BME280;72328;49.570;8.722;2023-11-18T00:53:30;100565.31;;;12.00;60.64
46366;BME280;72328;49.570;8.722;2023-11-18T00:57:31;100566.03;;;12.02;60.93
46366;BME280;72328;49.570;8.722;2023-11-18T01:01:31;100569.53;;;12.01;60.99
46366;BME280;72328;49.570;8.722;2023-11-18T01:05:32;100575.53;;;12.01;60.74
46366;BME280;72328;49.570;8.722;2023-11-18T01:09:33;100585.94;;;12.00;60.98
46366;BME280;72328;49.570;8.722;2023-11-18T01:13:39;100585.88;;;12.01;60.70
46366;BME280;72328;49.570;8.722;2023-11-18T01:17:40;100582.53;;;11.99;60.80
46366;BME280;72328;49.570;8.722;2023-11-18T01:21:40;100591.84;;;12.02;60.88
46366;BME280;72328;49.570;8.722;2023-11-18T01:25:42;100581.59;;;12.00;60.62
46366;BME280;72328;49.570;8.722;2023-11-18T01:29:43;100584.19;;;12.00;60.35
46366;BME280;72328;49.570;8.722;2023-11-18T01:33:45;100575.63;;;12.00;60.65
46366;BME280;72328;49.570;8.722;2023-11-18T01:37:47;100580.78;;;12.00;60.64
46366;BME280;72328;49.570;8.722;2023-11-18T01:41:48;100583.44;;;11.98;60.53
46366;BME280;72328;49.570;8.722;2023-11-18T01:45:49;100589.63;;;11.96;60.90
46366;BME280;72328;49.570;8.722;2023-11-18T01:49:50;100580.31;;;11.93;60.81
46366;BME280;72328;49.570;8.722;2023-11-18T01:53:51;100576.06;;;11.92;60.76
46366;BME280;72328;49.570;8.722;2023-11-18T01:57:52;100591.56;;;11.92;60.30
46366;BME280;72328;49.570;8.722;2023-11-18T02:01:53;100580.69;;;11.87;60.77
46366;BME280;72328;49.570;8.722;2023-11-18T02:05:54;100581.78;;;11.83;60.51
46366;BME280;72328;49.570;8.722;2023-11-18T02:09:55;100591.38;;;11.81;60.29
46366;BME280;72328;49.570;8.722;2023-11-18T02:13:55;100583.06;;;11.76;60.58
46366;BME280;72328;49.570;8.722;2023-11-18T02:17:59;100590.97;;;11.73;60.04
46366;BME280;72328;49.570;8.722;2023-11-18T02:22:02;100586.94;;;11.69;60.06
46366;BME280;72328;49.570;8.722;2023-11-18T02:26:03;100593.25;;;11.64;60.07
46366;BME280;72328;49.570;8.722;2023-11-18T02:30:07;100591.81;;;11.58;60.09
46366;BME280;72328;49.570;8.722;2023-11-18T02:34:15;100587.00;;;11.52;59.93
46366;BME280;72328;49.570;8.722;2023-11-18T02:38:19;100596.03;;;11.45;60.04
46366;BME280;72328;49.570;8.722;2023-11-18T02:42:23;100600.59;;;11.40;59.73
46366;BME280;72328;49.570;8.722;2023-11-18T02:46:24;100600.22;;;11.32;59.79
46366;BME280;72328;49.570;8.722;2023-11-18T02:50:27;100600.66;;;11.25;59.92
46366;BME280;72328;49.570;8.722;2023-11-18T02:54:29;100604.38;;;11.19;59.84
46366;BME280;72328;49.570;8.722;2023-11-18T02:58:30;100594.50;;;11.12;59.24
46366;BME280;72328;49.570;8.722;2023-11-18T03:02:31;100593.13;;;11.06;59.52
46366;BME280;72328;49.570;8.722;2023-11-18T03:06:31;100591.69;;;11.01;59.36
46366;BME280;72328;49.570;8.722;2023-11-18T03:10:36;100588.63;;;10.94;59.63
46366;BME280;72328;49.570;8.722;2023-11-18T03:14:37;100587.22;;;10.89;59.30
46366;BME280;72328;49.570;8.722;2023-11-18T03:18:40;100580.00;;;10.80;59.40
46366;BME280;72328;49.570;8.722;2023-11-18T03:22:40;100582.75;;;10.77;59.64
46366;BME280;72328;49.570;8.722;2023-11-18T03:26:41;100573.59;;;10.71;59.73
46366;BME280;72328;49.570;8.722;2023-11-18T03:30:42;100578.16;;;10.66;59.62
46366;BME280;72328;49.570;8.722;2023-11-18T03:34:42;100575.00;;;10.61;59.31
46366;BME280;72328;49.570;8.722;2023-11-18T03:38:44;100589.88;;;10.56;59.61
46366;BME280;72328;49.570;8.722;2023-11-18T03:42:45;100586.72;;;10.51;59.61
46366;BME280;72328;49.570;8.722;2023-11-18T03:46:48;100591.19;;;10.48;59.83
46366;BME280;72328;49.570;8.722;2023-11-18T03:50:50;100592.25;;;10.44;59.49
46366;BME280;72328;49.570;8.722;2023-11-18T03:54:50;100587.28;;;10.41;59.80
46366;BME280;72328;49.570;8.722;2023-11-18T03:58:51;100594.25;;;10.39;59.97
46366;BME280;72328;49.570;8.722;2023-11-18T04:02:52;100604.63;;;10.37;59.81
46366;BME280;72328;49.570;8.722;2023-11-18T04:06:52;100600.38;;;10.36;59.52
46366;BME280;72328;49.570;8.722;2023-11-18T04:10:53;100610.69;;;10.36;59.76
46366;BME280;72328;49.570;8.722;2023-11-18T04:14:54;100593.66;;;10.34;59.61
46366;BME280;72328;49.570;8.722;2023-11-18T04:18:54;100597.97;;;10.33;59.80
46366;BME280;72328;49.570;8.722;2023-11-18T04:22:56;100593.91;;;10.29;59.48
46366;BME280;72328;49.570;8.722;2023-11-18T04:26:57;100591.47;;;10.26;59.84
46366;BME280;72328;49.570;8.722;2023-11-18T04:30:57;100587.25;;;10.25;59.84
46366;BME280;72328;49.570;8.722;2023-11-18T04:34:59;100577.88;;;10.24;59.96
46366;BME280;72328;49.570;8.722;2023-11-18T04:39:00;100570.31;;;10.21;59.97
46366;BME280;72328;49.570;8.722;2023-11-18T04:43:01;100568.50;;;10.23;59.71
46366;BME280;72328;49.570;8.722;2023-11-18T04:47:01;100586.56;;;10.22;59.75
46366;BME280;72328;49.570;8.722;2023-11-18T04:51:02;100577.94;;;10.23;59.72
46366;BME280;72328;49.570;8.722;2023-11-18T04:55:04;100566.00;;;10.22;60.21
46366;BME280;72328;49.570;8.722;2023-11-18T04:59:06;100571.22;;;10.20;60.13
46366;BME280;72328;49.570;8.722;2023-11-18T05:03:07;100575.47;;;10.21;59.98
46366;BME280;72328;49.570;8.722;2023-11-18T05:07:09;100572.06;;;10.21;59.88
46366;BME280;72328;49.570;8.722;2023-11-18T05:11:10;100586.56;;;10.22;60.28
46366;BME280;72328;49.570;8.722;2023-11-18T05:15:11;100585.75;;;10.21;59.68
46366;BME280;72328;49.570;8.722;2023-11-18T05:19:13;100571.22;;;10.20;60.23
46366;BME280;72328;49.570;8.722;2023-11-18T05:23:14;100567.97;;;10.17;59.71
46366;BME280;72328;49.570;8.722;2023-11-18T05:27:15;100569.81;;;10.15;59.80
46366;BME280;72328;49.570;8.722;2023-11-18T05:31:17;100566.72;;;10.08;59.80
46366;BME280;72328;49.570;8.722;2023-11-18T05:35:18;100579.13;;;10.00;59.82
46366;BME280;72328;49.570;8.722;2023-11-18T05:39:19;100580.00;;;9.99;60.34
46366;BME280;72328;49.570;8.722;2023-11-18T05:43:22;100575.69;;;10.00;59.81
46366;BME280;72328;49.570;8.722;2023-11-18T05:47:23;100559.44;;;9.99;60.53
46366;BME280;72328;49.570;8.722;2023-11-18T05:51:25;100552.63;;;9.98;60.13
46366;BME280;72328;49.570;8.722;2023-11-18T05:55:27;100564.66;;;9.98;60.20
46366;BME280;72328;49.570;8.722;2023-11-18T05:59:27;100563.91;;;9.96;60.00
46366;BME280;72328;49.570;8.722;2023-11-18T06:03:28;100556.44;;;9.91;60.21
46366;BME280;72328;49.570;8.722;2023-11-18T06:07:29;100560.81;;;9.89;59.99
46366;BME280;72328;49.570;8.722;2023-11-18T06:11:30;100564.28;;;9.88;60.02
46366;BME280;72328;49.570;8.722;2023-11-18T06:15:32;100573.84;;;9.86;60.23
46366;BME280;72328;49.570;8.722;2023-11-18T06:19:33;100575.56;;;9.86;60.25
46366;BME280;72328;49.570;8.722;2023-11-18T06:23:34;100566.19;;;9.85;60.35
46366;BME280;72328;49.570;8.722;2023-11-18T06:27:35;100573.97;;;9.83;60.22
46366;BME280;72328;49.570;8.722;2023-11-18T06:31:36;100570.97;;;9.75;60.36
46366;BME280;72328;49.570;8.722;2023-11-18T06:35:37;100569.91;;;9.79;60.21
46366;BME280;72328;49.570;8.722;2023-11-18T06:39:41;100569.91;;;9.79;60.09
46366;BME280;72328;49.570;8.722;2023-11-18T06:43:45;100565.66;;;9.78;59.98
46366;BME280;72328;49.570;8.722;2023-11-18T06:47:52;100556.22;;;9.79;60.08
46366;BME280;72328;49.570;8.722;2023-11-18T06:51:53;100568.09;;;9.81;60.58
46366;BME280;72328;49.570;8.722;2023-11-18T06:55:53;100573.16;;;9.83;60.14
46366;BME280;72328;49.570;8.722;2023-11-18T06:59:54;100577.47;;;9.82;60.30
46366;BME280;72328;49.570;8.722;2023-11-18T07:03:54;100576.56;;;9.83;60.53
46366;BME280;72328;49.570;8.722;2023-11-18T07:07:56;100571.41;;;9.83;60.49
46366;BME280;72328;49.570;8.722;2023-11-18T07:11:57;100582.47;;;9.85;60.71
46366;BME280;72328;49.570;8.722;2023-11-18T07:15:58;100588.41;;;9.86;60.79
46366;BME280;72328;49.570;8.722;2023-11-18T07:19:58;100583.28;;;9.86;60.89
46366;BME280;72328;49.570;8.722;2023-11-18T07:23:59;100572.06;;;9.87;60.82
46366;BME280;72328;49.570;8.722;2023-11-18T07:28:00;100563.38;;;9.89;61.26
46366;BME280;72328;49.570;8.722;2023-11-18T07:32:01;100571.63;;;9.96;61.47
46366;BME280;72328;49.570;8.722;2023-11-18T07:36:06;100568.06;;;9.98;61.58
46366;BME280;72328;49.570;8.722;2023-11-18T07:40:11;100570.94;;;10.09;61.75
46366;BME280;72328;49.570;8.722;2023-11-18T07:44:12;100588.47;;;10.18;61.84
46366;BME280;72328;49.570;8.722;2023-11-18T07:48:13;100589.75;;;10.27;61.41
46366;BME280;72328;49.570;8.722;2023-11-18T07:52:17;100592.66;;;10.36;61.81
46366;BME280;72328;49.570;8.722;2023-11-18T07:56:18;100579.50;;;10.42;61.85
46366;BME280;72328;49.570;8.722;2023-11-18T08:00:19;100578.25;;;10.49;61.87
46366;BME280;72328;49.570;8.722;2023-11-18T08:04:19;100574.50;;;10.55;61.35
46366;BME280;72328;49.570;8.722;2023-11-18T08:08:21;100570.78;;;10.60;61.64
46366;BME280;72328;49.570;8.722;2023-11-18T08:12:22;100580.34;;;10.58;61.49
46366;BME280;72328;49.570;8.722;2023-11-18T08:16:22;100577.19;;;10.53;62.01
46366;BME280;72328;49.570;8.722;2023-11-18T08:20:25;100596.66;;;10.57;61.80
46366;BME280;72328;49.570;8.722;2023-11-18T08:24:25;100586.16;;;10.62;61.85
46366;BME280;72328;49.570;8.722;2023-11-18T08:28:27;100586.03;;;10.63;62.11
46366;BME280;72328;49.570;8.722;2023-11-18T08:32:27;100595.34;;;10.66;61.93
46366;BME280;72328;49.570;8.722;2023-11-18T08:36:28;100590.69;;;10.72;62.06
46366;BME280;72328;49.570;8.722;2023-11-18T08:40:32;100585.13;;;10.80;62.02
46366;BME280;72328;49.570;8.722;2023-11-18T08:44:34;100576.91;;;10.89;62.38
46366;BME280;72328;49.570;8.722;2023-11-18T08:48:35;100574.00;;;10.95;62.21
46366;BME280;72328;49.570;8.722;2023-11-18T08:52:36;100580.97;;;11.08;62.42
46366;BME280;72328;49.570;8.722;2023-11-18T08:56:40;100575.97;;;11.21;62.64
46366;BME280;72328;49.570;8.722;2023-11-18T09:00:42;100576.09;;;11.33;63.27
46366;BME280;72328;49.570;8.722;2023-11-18T09:04:45;100567.66;;;11.45;63.76
46366;BME280;72328;49.570;8.722;2023-11-18T09:08:48;100570.38;;;11.58;63.52
46366;BME280;72328;49.570;8.722;2023-11-18T09:12:53;100562.50;;;11.75;63.78
46366;BME280;72328;49.570;8.722;2023-11-18T09:16:53;100549.00;;;11.85;64.12
46366;BME280;72328;49.570;8.722;2023-11-18T09:20:59;100557.56;;;12.00;63.72
46366;BME280;72328;49.570;8.722;2023-11-18T09:25:01;100545.00;;;12.08;63.70
46366;BME280;72328;49.570;8.722;2023-11-18T09:29:02;100555.97;;;12.25;64.11
46366;BME280;72328;49.570;8.722;2023-11-18T09:33:02;100551.19;;;12.33;63.96
46366;BME280;72328;49.570;8.722;2023-11-18T09:37:06;100548.88;;;12.43;64.11
46366;BME280;72328;49.570;8.722;2023-11-18T09:41:10;100560.00;;;12.57;63.98
46366;BME280;72328;49.570;8.722;2023-11-18T09:45:14;100554.25;;;12.66;64.53
46366;BME280;72328;49.570;8.722;2023-11-18T09:49:32;100551.84;;;12.77;64.36
46366;BME280;72328;49.570;8.722;2023-11-18T09:53:39;100557.53;;;12.82;64.05
46366;BME280;72328;49.570;8.722;2023-11-18T09:57:44;100560.56;;;12.89;63.83
46366;BME280;72328;49.570;8.722;2023-11-18T10:01:46;100564.50;;;12.94;64.38
46366;BME280;72328;49.570;8.722;2023-11-18T10:05:48;100550.78;;;12.94;63.87
46366;BME280;72328;49.570;8.722;2023-11-18T10:09:50;100561.78;;;12.97;63.81
46366;BME280;72328;49.570;8.722;2023-11-18T10:13:57;100550.50;;;12.98;63.53
46366;BME280;72328;49.570;8.722;2023-11-18T10:17:58;100536.75;;;12.98;63.57
46366;BME280;72328;49.570;8.722;2023-11-18T10:22:20;100541.81;;;12.99;63.32
46366;BME280;72328;49.570;8.722;2023-11-18T10:26:24;100547.91;;;12.98;63.39
46366;BME280;72328;49.570;8.722;2023-11-18T10:30:25;100556.31;;;13.02;63.57
46366;BME280;72328;49.570;8.722;2023-11-18T10:34:26;100553.63;;;13.03;63.44
46366;BME280;72328;49.570;8.722;2023-11-18T10:38:32;100547.75;;;13.01;62.98
46366;BME280;72328;49.570;8.722;2023-11-18T10:42:37;100556.53;;;12.99;62.99
46366;BME280;72328;49.570;8.722;2023-11-18T10:46:40;100546.34;;;12.96;63.02
46366;BME280;72328;49.570;8.722;2023-11-18T10:50:41;100533.50;;;12.94;63.17
46366;BME280;72328;49.570;8.722;2023-11-18T10:54:55;100530.19;;;12.92;63.05
46366;BME280;72328;49.570;8.722;2023-11-18T10:59:05;100530.28;;;12.91;63.21
46366;BME280;72328;49.570;8.722;2023-11-18T11:03:08;100528.41;;;12.93;63.21
46366;BME280;72328;49.570;8.722;2023-11-18T11:07:14;100516.63;;;12.89;63.14
46366;BME280;72328;49.570;8.722;2023-11-18T11:11:19;100511.34;;;12.90;63.35
46366;BME280;72328;49.570;8.722;2023-11-18T11:15:23;100507.75;;;12.93;62.95
46366;BME280;72328;49.570;8.722;2023-11-18T11:19:45;100502.47;;;12.94;63.24
46366;BME280;72328;49.570;8.722;2023-11-18T11:24:01;100488.00;;;12.92;63.11
46366;BME280;72328;49.570;8.722;2023-11-18T11:32:18;100483.44;;;12.83;63.04
46366;BME280;72328;49.570;8.722;2023-11-18T11:36:21;100468.13;;;12.80;62.83
46366;BME280;72328;49.570;8.722;2023-11-18T11:40:23;100459.66;;;12.78;62.41
46366;BME280;72328;49.570;8.722;2023-11-18T11:44:25;100442.59;;;12.75;62.77
46366;BME280;72328;49.570;8.722;2023-11-18T11:48:29;100428.63;;;12.78;62.60
46366;BME280;72328;49.570;8.722;2023-11-18T11:52:36;100436.94;;;12.83;62.73
46366;BME280;72328;49.570;8.722;2023-11-18T11:56:43;100426.47;;;12.84;62.52
46366;BME280;72328;49.570;8.722;2023-11-18T12:00:47;100414.69;;;12.80;62.55
46366;BME280;72328;49.570;8.722;2023-11-18T12:04:50;100405.25;;;12.79;62.27
46366;BME280;72328;49.570;8.722;2023-11-18T12:08:54;100397.63;;;12.78;62.47
46366;BME280;72328;49.570;8.722;2023-11-18T12:13:10;100406.09;;;12.80;62.04
46366;BME280;72328;49.570;8.722;2023-11-18T12:17:19;100387.56;;;12.73;62.44
46366;BME280;72328;49.570;8.722;2023-11-18T12:21:55;100389.44;;;12.71;62.11
46366;BME280;72328;49.570;8.722;2023-11-18T12:25:56;100392.75;;;12.73;62.12
46366;BME280;72328;49.570;8.722;2023-11-18T12:29:58;100395.94;;;12.77;62.29
46366;BME280;72328;49.570;8.722;2023-11-18T12:47:05;100362.16;;;12.80;62.27
46366;BME280;72328;49.570;8.722;2023-11-18T12:51:15;100365.25;;;12.72;61.71
46366;BME280;72328;49.570;8.722;2023-11-18T12:55:20;100363.38;;;12.62;61.93
46366;BME280;72328;49.570;8.722;2023-11-18T12:59:21;100354.91;;;12.60;61.73
46366;BME280;72328;49.570;8.722;2023-11-18T13:03:23;100348.09;;;12.59;62.22
46366;BME280;72328;49.570;8.722;2023-11-18T13:07:25;100349.63;;;12.61;62.20
46366;BME280;72328;49.570;8.722;2023-11-18T13:11:29;100328.97;;;12.61;62.36
46366;BME280;72328;49.570;8.722;2023-11-18T13:15:30;100316.75;;;12.63;61.88
46366;BME280;72328;49.570;8.722;2023-11-18T13:19:31;100310.47;;;12.67;61.74
46366;BME280;72328;49.570;8.722;2023-11-18T13:23:34;100301.78;;;12.68;62.14
46366;BME280;72328;49.570;8.722;2023-11-18T13:27:35;100291.69;;;12.65;61.99
46366;BME280;72328;49.570;8.722;2023-11-18T13:31:36;100290.56;;;12.69;61.70
46366;BME280;72328;49.570;8.722;2023-11-18T13:35:38;100277.63;;;12.69;61.80
46366;BME280;72328;49.570;8.722;2023-11-18T13:39:39;100271.72;;;12.67;61.66
46366;BME280;72328;49.570;8.722;2023-11-18T13:43:45;100263.88;;;12.69;62.21
46366;BME280;72328;49.570;8.722;2023-11-18T13:47:55;100255.19;;;12.70;61.90
46366;BME280;72328;49.570;8.722;2023-11-18T13:51:57;100240.72;;;12.67;61.84
46366;BME280;72328;49.570;8.722;2023-11-18T13:55:59;100238.22;;;12.66;61.92
46366;BME280;72328;49.570;8.722;2023-11-18T14:00:00;100236.50;;;12.66;61.60
46366;BME280;72328;49.570;8.722;2023-11-18T14:04:01;100241.47;;;12.69;61.89
46366;BME280;72328;49.570;8.722;2023-11-18T14:08:04;100245.78;;;12.69;61.75
46366;BME280;72328;49.570;8.722;2023-11-18T14:12:13;100239.78;;;12.68;61.60
46366;BME280;72328;49.570;8.722;2023-11-18T14:16:14;100234.63;;;12.68;61.96
46366;BME280;72328;49.570;8.722;2023-11-18T14:20:17;100211.16;;;12.71;61.57
46366;BME280;72328;49.570;8.722;2023-11-18T14:24:18;100200.59;;;12.74;61.26
46366;BME280;72328;49.570;8.722;2023-11-18T14:28:19;100201.53;;;12.73;61.27
46366;BME280;72328;49.570;8.722;2023-11-18T14:32:23;100192.38;;;12.69;61.61
46366;BME280;72328;49.570;8.722;2023-11-18T14:36:28;100202.91;;;12.66;61.62
46366;BME280;72328;49.570;8.722;2023-11-18T14:40:29;100205.69;;;12.63;61.44
46366;BME280;72328;49.570;8.722;2023-11-18T14:44:29;100219.63;;;12.61;61.67
46366;BME280;72328;49.570;8.722;2023-11-18T14:48:30;100231.50;;;12.63;61.50
46366;BME280;72328;49.570;8.722;2023-11-18T14:52:31;100232.25;;;12.65;61.56
46366;BME280;72328;49.570;8.722;2023-11-18T14:56:32;100240.72;;;12.67;61.49
46366;BME280;72328;49.570;8.722;2023-11-18T15:00:32;100240.94;;;12.64;61.67
46366;BME280;72328;49.570;8.722;2023-11-18T15:04:33;100243.63;;;12.63;61.49
46366;BME280;72328;49.570;8.722;2023-11-18T15:08:34;100230.91;;;12.60;61.38
46366;BME280;72328;49.570;8.722;2023-11-18T15:12:35;100228.41;;;12.58;61.60
46366;BME280;72328;49.570;8.722;2023-11-18T15:16:36;100224.28;;;12.56;61.50
46366;BME280;72328;49.570;8.722;2023-11-18T15:20:37;100216.44;;;12.57;61.28
46366;BME280;72328;49.570;8.722;2023-11-18T15:24:43;100213.84;;;12.57;61.63
46366;BME280;72328;49.570;8.722;2023-11-18T15:28:43;100219.03;;;12.57;61.41
46366;BME280;72328;49.570;8.722;2023-11-18T15:32:45;100218.31;;;12.55;61.27
46366;BME280;72328;49.570;8.722;2023-11-18T15:36:49;100215.50;;;12.58;61.01
46366;BME280;72328;49.570;8.722;2023-11-18T15:40:51;100204.97;;;12.61;61.04
46366;BME280;72328;49.570;8.722;2023-11-18T15:44:52;100185.00;;;12.63;60.83
46366;BME280;72328;49.570;8.722;2023-11-18T15:48:54;100179.97;;;12.62;60.98
46366;BME280;72328;49.570;8.722;2023-11-18T15:52:56;100168.28;;;12.56;60.79
46366;BME280;72328;49.570;8.722;2023-11-18T15:56:57;100167.78;;;12.51;61.03
46366;BME280;72328;49.570;8.722;2023-11-18T16:00:58;100145.06;;;12.44;61.27
46366;BME280;72328;49.570;8.722;2023-11-18T16:04:59;100139.47;;;12.37;61.26
46366;BME280;72328;49.570;8.722;2023-11-18T16:09:00;100113.03;;;12.34;61.17
46366;BME280;72328;49.570;8.722;2023-11-18T16:13:02;100099.53;;;12.30;61.45
46366;BME280;72328;49.570;8.722;2023-11-18T16:17:03;100115.84;;;12.31;61.07
46366;BME280;72328;49.570;8.722;2023-11-18T16:21:04;100104.69;;;12.30;60.88
46366;BME280;72328;49.570;8.722;2023-11-18T16:25:05;100112.44;;;12.30;60.81
46366;BME280;72328;49.570;8.722;2023-11-18T16:29:05;100092.81;;;12.28;61.01
46366;BME280;72328;49.570;8.722;2023-11-18T16:33:07;100090.22;;;12.28;61.20
46366;BME280;72328;49.570;8.722;2023-11-18T16:37:08;100093.03;;;12.25;60.89
46366;BME280;72328;49.570;8.722;2023-11-18T16:41:08;100081.16;;;12.22;61.16
46366;BME280;72328;49.570;8.722;2023-11-18T16:45:14;100079.28;;;12.24;61.47
46366;BME280;72328;49.570;8.722;2023-11-18T16:49:14;100058.31;;;12.29;61.23
46366;BME280;72328;49.570;8.722;2023-11-18T16:53:17;100039.44;;;12.28;61.49
46366;BME280;72328;49.570;8.722;2023-11-18T16:57:18;100035.22;;;12.27;61.01
46366;BME280;72328;49.570;8.722;2023-11-18T17:01:19;100020.63;;;12.26;61.13
46366;BME280;72328;49.570;8.722;2023-11-18T17:05:22;100028.59;;;12.23;61.59
46366;BME280;72328;49.570;8.722;2023-11-18T17:09:23;100011.75;;;12.18;61.53
46366;BME280;72328;49.570;8.722;2023-11-18T17:13:24;100009.59;;;12.12;61.60
46366;BME280;72328;49.570;8.722;2023-11-18T17:17:28;100032.94;;;12.10;61.59
46366;BME280;72328;49.570;8.722;2023-11-18T17:21:29;100026.56;;;12.03;61.78
46366;BME280;72328;49.570;8.722;2023-11-18T17:25:30;100026.97;;;11.97;61.57
46366;BME280;72328;49.570;8.722;2023-11-18T17:29:30;100020.16;;;11.96;61.73
46366;BME280;72328;49.570;8.722;2023-11-18T17:33:31;100023.03;;;11.92;61.90
46366;BME280;72328;49.570;8.722;2023-11-18T17:37:32;100018.63;;;11.94;61.53
46366;BME280;72328;49.570;8.722;2023-11-18T17:41:32;100003.34;;;11.91;61.44
46366;BME280;72328;49.570;8.722;2023-11-18T17:45:33;99997.56;;;11.87;61.57
46366;BME280;72328;49.570;8.722;2023-11-18T17:49:33;99980.44;;;11.86;61.71
46366;BME280;72328;49.570;8.722;2023-11-18T17:53:34;99962.47;;;11.85;61.62
46366;BME280;72328;49.570;8.722;2023-11-18T17:57:35;99946.59;;;11.78;62.03
46366;BME280;72328;49.570;8.722;2023-11-18T18:01:36;99944.34;;;11.74;62.20
46366;BME280;72328;49.570;8.722;2023-11-18T18:05:37;99942.78;;;11.71;61.87
46366;BME280;72328;49.570;8.722;2023-11-18T18:09:38;99928.34;;;11.69;61.96
46366;BME280;72328;49.570;8.722;2023-11-18T18:13:39;99915.78;;;11.64;62.18
46366;BME280;72328;49.570;8.722;2023-11-18T18:17:40;99904.03;;;11.60;62.22
46366;BME280;72328;49.570;8.722;2023-11-18T18:21:40;99877.09;;;11.52;62.24
46366;BME280;72328;49.570;8.722;2023-11-18T18:25:41;99867.81;;;11.49;62.36
46366;BME280;72328;49.570;8.722;2023-11-18T18:29:42;99861.19;;;11.45;62.60
46366;BME280;72328;49.570;8.722;2023-11-18T18:33:43;99870.91;;;11.42;62.89
46366;BME280;72328;49.570;8.722;2023-11-18T18:37:43;99868.44;;;11.40;63.07
46366;BME280;72328;49.570;8.722;2023-11-18T18:41:44;99855.88;;;11.36;63.00
46366;BME280;72328;49.570;8.722;2023-11-18T18:45:45;99840.69;;;11.31;62.78
46366;BME280;72328;49.570;8.722;2023-11-18T18:49:45;99834.13;;;11.27;63.03
46366;BME280;72328;49.570;8.722;2023-11-18T18:53:46;99836.91;;;11.24;63.44
46366;BME280;72328;49.570;8.722;2023-11-18T18:57:48;99841.13;;;11.25;62.91
46366;BME280;72328;49.570;8.722;2023-11-18T19:01:49;99839.78;;;11.32;63.45
46366;BME280;72328;49.570;8.722;2023-11-18T19:05:50;99835.75;;;11.41;62.73
46366;BME280;72328;49.570;8.722;2023-11-18T19:09:51;99844.19;;;11.43;63.14
46366;BME280;72328;49.570;8.722;2023-11-18T19:13:51;99837.28;;;11.43;62.96
46366;BME280;72328;49.570;8.722;2023-11-18T19:17:52;99838.19;;;11.42;63.28
46366;BME280;72328;49.570;8.722;2023-11-18T19:21:53;99811.28;;;11.46;63.09
46366;BME280;72328;49.570;8.722;2023-11-18T19:25:53;99792.19;;;11.49;63.52
46366;BME280;72328;49.570;8.722;2023-11-18T19:29:54;99790.22;;;11.52;63.27
46366;BME280;72328;49.570;8.722;2023-11-18T19:33:55;99792.50;;;11.57;63.59
46366;BME280;72328;49.570;8.722;2023-11-18T19:37:55;99806.63;;;11.64;62.97
46366;BME280;72328;49.570;8.722;2023-11-18T19:41:56;99826.63;;;11.73;63.09
46366;BME280;72328;49.570;8.722;2023-11-18T19:45:57;99804.72;;;11.78;62.93
46366;BME280;72328;49.570;8.722;2023-11-18T19:49:58;99787.16;;;11.83;63.18
46366;BME280;72328;49.570;8.722;2023-11-18T19:53:58;99779.94;;;11.88;62.72
46366;BME280;72328;49.570;8.722;2023-11-18T19:57:59;99791.44;;;11.95;63.04
46366;BME280;72328;49.570;8.722;2023-11-18T20:02:00;99770.16;;;12.04;62.74
46366;BME280;72328;49.570;8.722;2023-11-18T20:06:01;99766.22;;;12.11;62.71
46366;BME280;72328;49.570;8.722;2023-11-18T20:10:02;99764.53;;;12.10;62.79
46366;BME280;72328;49.570;8.722;2023-11-18T20:14:02;99758.88;;;12.05;62.96
46366;BME280;72328;49.570;8.722;2023-11-18T20:18:03;99773.66;;;12.03;62.69
46366;BME280;72328;49.570;8.722;2023-11-18T20:22:10;99766.63;;;12.05;62.97
46366;BME280;72328;49.570;8.722;2023-11-18T20:26:11;99760.56;;;12.06;62.83
46366;BME280;72328;49.570;8.722;2023-11-18T20:30:13;99751.75;;;12.09;62.99
46366;BME280;72328;49.570;8.722;2023-11-18T20:34:15;99772.50;;;12.07;62.80
46366;BME280;72328;49.570;8.722;2023-11-18T20:38:15;99758.56;;;12.10;62.96
46366;BME280;72328;49.570;8.722;2023-11-18T20:42:16;99762.44;;;12.15;62.66
46366;BME280;72328;49.570;8.722;2023-11-18T20:46:17;99758.81;;;12.18;62.66
46366;BME280;72328;49.570;8.722;2023-11-18T20:50:18;99763.41;;;12.25;62.79
46366;BME280;72328;49.570;8.722;2023-11-18T20:54:18;99762.97;;;12.31;62.34
46366;BME280;72328;49.570;8.722;2023-11-18T20:58:19;99753.47;;;12.32;62.68
46366;BME280;72328;49.570;8.722;2023-11-18T21:02:20;99750.53;;;12.36;62.79
46366;BME280;72328;49.570;8.722;2023-11-18T21:06:21;99745.75;;;12.43;62.17
46366;BME280;72328;49.570;8.722;2023-11-18T21:10:21;99747.50;;;12.42;62.31
46366;BME280;72328;49.570;8.722;2023-11-18T21:14:22;99742.13;;;12.45;62.26
46366;BME280;72328;49.570;8.722;2023-11-18T21:18:22;99743.75;;;12.46;62.53
46366;BME280;72328;49.570;8.722;2023-11-18T21:22:24;99748.91;;;12.46;62.26
46366;BME280;72328;49.570;8.722;2023-11-18T21:26:24;99760.88;;;12.47;62.18